This is the latest recevied weather packets stored in our database for station/object GW6922. If no packets are shown the sender has not sent any weather packets the latest 10 day(s).
| Time | Temp. | Humidity | Pressure | Rain* | Wind** | Luminosity | Snow |
|---|---|---|---|---|---|---|---|
| 1777497715 | 14.44° C | 33% | 1011.2 hPa | 0 mm | - | - | - |
| 1777492790 | 15.56° C | 34% | 1012.2 hPa | 0 mm | - | - | - |
| 1777492180 | 15.56° C | 35% | 1012.1 hPa | 0 mm | - | - | - |
| 1777489148 | 14.44° C | 35% | 1012.1 hPa | 0 mm | - | - | - |
| 1777486670 | 14.44° C | 33% | 1011.8 hPa | 0 mm | - | - | - |
| 1777483003 | 13.89° C | 41% | 1012.2 hPa | 0 mm | - | - | - |
| 1777476260 | 12.22° C | 45% | 1012.9 hPa | 0 mm | - | - | - |
| 1777475650 | 12.22° C | 49% | 1013 hPa | 0 mm | - | - | - |
| 1777474430 | 12.22° C | 51% | 1012.5 hPa | 0 mm | - | - | - |
| 1777471345 | 10.56° C | 58% | 1012.5 hPa | 0 mm | - | - | - |
| 1777469480 | 10° C | 61% | 1012.5 hPa | 0 mm | - | - | - |
| 1777467035 | 9.44° C | 66% | 1012.2 hPa | 0 mm | - | - | - |
| 1777464560 | 8.33° C | 70% | 1012 hPa | 0 mm | - | - | - |
| 1777459630 | 8.89° C | 69% | 1011.6 hPa | 0 mm | - | - | - |
| 1777455945 | 9.44° C | 69% | 1011.2 hPa | 0 mm | - | - | - |
| 1777447988 | 10.56° C | 69% | 1010.9 hPa | 0 mm | - | - | - |
| 1777440627 | 12.22° C | 65% | 1010.7 hPa | 0 mm | - | - | - |
| 1777435165 | 12.22° C | 65% | 1009.7 hPa | 0 mm | - | - | - |
| 1777434520 | 12.22° C | 64% | 1009.5 hPa | 0 mm | - | - | - |
| 1777430240 | 12.78° C | 60% | 1009.7 hPa | 0 mm | - | - | - |
| 1777428400 | 13.89° C | 52% | 1010.1 hPa | 0 mm | - | - | - |
| 1777427800 | 13.89° C | 52% | 1010 hPa | 0 mm | - | - | - |
| 1777417990 | 16.67° C | 42% | 1009.2 hPa | 0 mm | - | - | - |
| 1777411220 | 17.22° C | 46% | 1008.9 hPa | 0 mm | - | - | - |
| 1777409380 | 17.78° C | 44% | 1009 hPa | 0 mm | - | - | - |
* Rain latest hour (hover to see other rain measurements)
** Current wind speed in m/s (hover to see current wind gust speed)